Time;durP1;ratioP1;P1;durP2;ratioP2;P2;SDS_P1;SDS_P2;PMS_P1;PMS_P2;Temp;Humidity;BMP_temperature;BMP_pressure;BME280_temperature;BME280_humidity;BME280_pressure;Samples;Min_cycle;Max_cycle;Signal;HPM_P1;HPM_P2
2023/03/27 00:00:55;;;;;;;11.10;6.55;;;;;;;;;;5052544;28;20032;-69
2023/03/27 00:03:22;;;;;;;13.50;6.90;;;;;;;;;;5039947;28;20033;-70
2023/03/27 00:05:48;;;;;;;18.83;7.80;;;;;;;;;;5045269;28;20031;-69
2023/03/27 00:08:13;;;;;;;10.75;7.55;;;;;;;;;;5049860;28;20033;-69
2023/03/27 00:10:39;;;;;;;10.85;6.95;;;;;;;;;;5032480;28;20483;-70
2023/03/27 00:13:07;;;;;;;11.88;7.10;;;;;;;;;;5032787;28;20029;-70
2023/03/27 00:15:33;;;;;;;17.10;8.50;;;;;;;;;;5032525;28;20059;-70
2023/03/27 00:18:02;;;;;;;12.82;7.50;;;;;;;;;;5040946;28;20040;-69
2023/03/27 00:20:32;;;;;;;16.02;7.78;;;;;;;;;;5055092;28;20021;-70
2023/03/27 00:22:57;;;;;;;15.77;6.65;;;;;;;;;;5056025;28;20037;-70
2023/03/27 00:25:25;;;;;;;12.27;7.22;;;;;;;;;;5032434;28;20490;-70
2023/03/27 00:27:53;;;;;;;17.38;7.00;;;;;;;;;;5032640;28;20033;-70
2023/03/27 00:30:19;;;;;;;15.13;7.32;;;;;;;;;;5030559;28;20056;-70
2023/03/27 00:32:45;;;;;;;10.85;6.93;;;;;;;;;;5020514;28;20106;-70
2023/03/27 00:35:12;;;;;;;12.80;7.45;;;;;;;;;;5053123;28;20028;-70
2023/03/27 00:37:38;;;;;;;12.35;7.10;;;;;;;;;;5061113;28;20036;-70
2023/03/27 00:40:07;;;;;;;11.60;6.78;;;;;;;;;;5030615;28;20025;-69
2023/03/27 00:42:34;;;;;;;10.75;6.65;;;;;;;;;;5034549;28;20045;-69
2023/03/27 00:45:01;;;;;;;12.80;6.78;;;;;;;;;;5051873;28;20025;-69
2023/03/27 00:47:37;;;;;;;13.75;7.63;;;;;;;;;;5051046;28;20062;-69
2023/03/27 00:50:10;;;;;;;13.82;7.25;;;;;;;;;;5051536;28;20044;-70
2023/03/27 00:52:43;;;;;;;12.35;7.57;;;;;;;;;;5051899;28;20025;-69
2023/03/27 00:55:14;;;;;;;11.35;7.55;;;;;;;;;;5050592;28;20055;-69
2023/03/27 00:57:48;;;;;;;11.25;7.13;;;;;;;;;;5050218;28;20028;-69
2023/03/27 01:00:15;;;;;;;16.23;7.35;;;;;;;;;;5050160;28;20039;-69
2023/03/27 01:02:47;;;;;;;10.85;5.93;;;;;;;;;;5048316;28;20446;-70
2023/03/27 01:05:14;;;;;;;16.63;6.70;;;;;;;;;;5050762;28;20127;-69
2023/03/27 01:07:40;;;;;;;14.35;7.55;;;;;;;;;;5054117;28;20483;-69
2023/03/27 01:10:10;;;;;;;13.50;7.57;;;;;;;;;;5049327;28;20056;-70
2023/03/27 01:13:21;;;;;;;14.70;7.47;;;;;;;;;;5046592;28;20033;-70
2023/03/27 01:15:50;;;;;;;18.08;7.75;;;;;;;;;;5046234;28;20039;-70
2023/03/27 01:18:55;;;;;;;11.88;6.57;;;;;;;;;;5040566;28;20021;-70
2023/03/27 01:21:58;;;;;;;12.07;7.00;;;;;;;;;;5050246;28;20047;-70
2023/03/27 01:24:56;;;;;;;11.18;6.78;;;;;;;;;;5049980;28;20035;-70
2023/03/27 01:27:51;;;;;;;10.48;6.47;;;;;;;;;;5050360;28;20078;-70
2023/03/27 01:30:32;;;;;;;11.32;6.88;;;;;;;;;;5041171;28;20469;-70
2023/03/27 01:33:16;;;;;;;10.95;6.70;;;;;;;;;;5047492;28;20098;-70
2023/03/27 01:35:58;;;;;;;10.90;6.00;;;;;;;;;;5049664;28;20055;-70
2023/03/27 01:38:54;;;;;;;15.75;6.65;;;;;;;;;;5049535;28;20430;-68
2023/03/27 01:41:39;;;;;;;17.48;8.00;;;;;;;;;;5049450;28;20415;-70
2023/03/27 01:44:23;;;;;;;18.23;8.80;;;;;;;;;;5049123;28;20042;-70
2023/03/27 01:46:54;;;;;;;17.23;7.55;;;;;;;;;;5049630;28;20033;-70
2023/03/27 01:49:38;;;;;;;15.85;7.95;;;;;;;;;;5041622;28;20037;-70
2023/03/27 01:52:13;;;;;;;14.23;7.95;;;;;;;;;;5049233;28;20120;-70
2023/03/27 01:54:44;;;;;;;14.38;8.73;;;;;;;;;;5049462;28;20033;-69
2023/03/27 01:57:21;;;;;;;12.45;8.23;;;;;;;;;;5049343;28;20063;-70
2023/03/27 01:59:54;;;;;;;15.38;8.05;;;;;;;;;;5052821;28;20402;-69
2023/03/27 02:02:28;;;;;;;14.07;8.07;;;;;;;;;;5053414;28;20392;-71
2023/03/27 02:05:04;;;;;;;13.75;7.63;;;;;;;;;;5053441;28;20037;-70
2023/03/27 02:07:53;;;;;;;12.43;7.38;;;;;;;;;;5069924;28;20170;-70
2023/03/27 02:10:30;;;;;;;11.90;7.15;;;;;;;;;;5068925;28;20037;-70
2023/03/27 02:13:02;;;;;;;12.27;7.72;;;;;;;;;;5052834;28;20025;-70
2023/03/27 02:15:32;;;;;;;10.60;7.30;;;;;;;;;;5053324;28;20392;-70
2023/03/27 02:18:03;;;;;;;14.70;6.65;;;;;;;;;;5054455;28;20040;-71
2023/03/27 02:20:36;;;;;;;10.60;6.38;;;;;;;;;;5052552;28;20112;-70
2023/03/27 02:23:03;;;;;;;11.88;7.30;;;;;;;;;;5053013;28;20044;-70
2023/03/27 02:25:31;;;;;;;14.20;7.22;;;;;;;;;;5052956;28;20037;-70
2023/03/27 02:28:21;;;;;;;16.48;7.82;;;;;;;;;;5052405;28;20033;-70
2023/03/27 02:30:47;;;;;;;22.75;8.63;;;;;;;;;;5053865;28;20021;-70
2023/03/27 02:33:22;;;;;;;27.38;9.38;;;;;;;;;;5052427;28;20043;-70
2023/03/27 02:36:36;;;;;;;17.48;8.50;;;;;;;;;;5049446;28;20043;-70
2023/03/27 02:39:13;;;;;;;14.00;7.20;;;;;;;;;;5046354;28;20040;-70
2023/03/27 02:42:10;;;;;;;19.40;8.98;;;;;;;;;;5052431;28;20088;-70
2023/03/27 02:45:01;;;;;;;24.50;9.15;;;;;;;;;;5051687;28;20179;-70
2023/03/27 02:47:52;;;;;;;15.45;7.63;;;;;;;;;;5047217;28;20354;-70
2023/03/27 02:50:23;;;;;;;17.52;8.35;;;;;;;;;;5052234;28;20106;-69
2023/03/27 02:52:56;;;;;;;14.02;8.05;;;;;;;;;;5052332;28;20039;-70
2023/03/27 02:55:33;;;;;;;14.55;8.23;;;;;;;;;;5053052;28;20120;-71
2023/03/27 02:58:06;;;;;;;22.48;9.18;;;;;;;;;;5035938;28;20083;-71
2023/03/27 03:00:48;;;;;;;14.23;7.78;;;;;;;;;;5053324;28;20037;-70
2023/03/27 03:03:56;;;;;;;26.95;9.13;;;;;;;;;;5049320;28;20056;-70
2023/03/27 03:06:55;;;;;;;13.23;7.28;;;;;;;;;;5054393;28;20120;-70
2023/03/27 03:09:23;;;;;;;12.75;8.02;;;;;;;;;;5051772;28;20396;-70
2023/03/27 03:11:53;;;;;;;16.85;8.50;;;;;;;;;;5052791;28;20043;-70
2023/03/27 03:14:24;;;;;;;13.98;7.18;;;;;;;;;;5045612;28;20029;-70
2023/03/27 03:16:50;;;;;;;13.82;8.88;;;;;;;;;;5053701;28;20309;-70
2023/03/27 03:19:16;;;;;;;18.40;9.00;;;;;;;;;;5052803;28;20059;-70
2023/03/27 03:21:42;;;;;;;24.65;9.75;;;;;;;;;;5052013;28;20036;-70
2023/03/27 03:24:11;;;;;;;15.68;8.05;;;;;;;;;;5051964;28;20052;-70
2023/03/27 03:26:36;;;;;;;15.88;8.43;;;;;;;;;;5048654;28;20504;-70
2023/03/27 03:29:03;;;;;;;20.15;8.48;;;;;;;;;;5048754;28;20040;-70
2023/03/27 03:31:42;;;;;;;17.55;7.68;;;;;;;;;;5048295;28;20037;-70
2023/03/27 03:34:14;;;;;;;17.65;7.63;;;;;;;;;;5050211;28;20075;-70
2023/03/27 03:36:41;;;;;;;24.67;9.45;;;;;;;;;;5051683;28;20063;-70
2023/03/27 03:39:10;;;;;;;20.25;7.55;;;;;;;;;;5052504;28;20561;-69
2023/03/27 03:41:35;;;;;;;11.55;6.95;;;;;;;;;;5053382;28;20443;-70
2023/03/27 03:44:02;;;;;;;12.32;7.32;;;;;;;;;;5052315;28;20108;-70
2023/03/27 03:46:28;;;;;;;26.23;9.25;;;;;;;;;;5051565;28;20056;-70
2023/03/27 03:48:53;;;;;;;17.98;9.43;;;;;;;;;;5046518;28;20053;-71
2023/03/27 03:51:19;;;;;;;22.05;9.07;;;;;;;;;;5051907;28;20414;-69
2023/03/27 03:53:45;;;;;;;26.45;8.40;;;;;;;;;;5047560;28;20031;-70
2023/03/27 03:56:10;;;;;;;16.58;8.02;;;;;;;;;;5051010;28;20043;-70
2023/03/27 03:58:36;;;;;;;21.95;9.73;;;;;;;;;;5051429;28;20029;-70
2023/03/27 04:01:07;;;;;;;21.20;8.07;;;;;;;;;;5052490;28;20269;-69
2023/03/27 04:03:42;;;;;;;20.23;9.07;;;;;;;;;;5045730;28;20056;-70
2023/03/27 04:06:09;;;;;;;12.23;7.78;;;;;;;;;;5047645;28;20040;-69
2023/03/27 04:08:35;;;;;;;22.05;9.40;;;;;;;;;;5045515;28;20033;-69
2023/03/27 04:11:01;;;;;;;21.13;7.63;;;;;;;;;;5048811;28;20491;-71
2023/03/27 04:13:45;;;;;;;16.05;8.65;;;;;;;;;;5052428;28;20036;-70
2023/03/27 04:16:39;;;;;;;23.88;8.40;;;;;;;;;;5049023;28;20048;-69
2023/03/27 04:19:17;;;;;;;21.50;8.18;;;;;;;;;;5070752;28;20078;-68
2023/03/27 04:21:46;;;;;;;14.55;8.40;;;;;;;;;;5070745;28;20414;-69
2023/03/27 04:24:13;;;;;;;21.20;7.57;;;;;;;;;;5071689;28;20032;-69
2023/03/27 04:26:45;;;;;;;24.58;8.85;;;;;;;;;;5071562;28;20406;-70
2023/03/27 04:29:24;;;;;;;16.40;7.95;;;;;;;;;;5063570;28;20398;-70
2023/03/27 04:31:59;;;;;;;13.73;7.93;;;;;;;;;;5051624;28;20499;-70
2023/03/27 04:34:41;;;;;;;17.10;9.15;;;;;;;;;;5051734;28;20041;-70
2023/03/27 04:37:15;;;;;;;16.58;8.30;;;;;;;;;;5051710;28;20383;-70
2023/03/27 04:39:56;;;;;;;20.17;8.20;;;;;;;;;;5049840;28;20032;-70
2023/03/27 04:42:23;;;;;;;14.05;7.95;;;;;;;;;;5024649;28;20084;-70
2023/03/27 04:44:51;;;;;;;14.30;7.90;;;;;;;;;;5027508;28;20032;-72
2023/03/27 04:47:19;;;;;;;15.20;8.25;;;;;;;;;;5030629;28;20111;-70
2023/03/27 04:49:49;;;;;;;16.42;7.38;;;;;;;;;;5026635;28;20079;-70
2023/03/27 04:52:24;;;;;;;23.92;9.75;;;;;;;;;;5021050;28;20479;-70
2023/03/27 04:54:50;;;;;;;12.43;6.80;;;;;;;;;;5033191;28;20147;-71
2023/03/27 04:57:18;;;;;;;15.18;7.47;;;;;;;;;;5037235;28;20461;-70
2023/03/27 04:59:47;;;;;;;18.75;8.05;;;;;;;;;;5032323;28;20556;-72
2023/03/27 05:02:32;;;;;;;16.40;7.60;;;;;;;;;;5027232;28;20037;-70
2023/03/27 05:05:19;;;;;;;14.27;7.20;;;;;;;;;;5011823;28;20085;-70
2023/03/27 05:07:46;;;;;;;24.70;9.02;;;;;;;;;;5027757;28;20041;-71
2023/03/27 05:10:17;;;;;;;17.60;7.38;;;;;;;;;;5027174;28;20029;-70
2023/03/27 05:12:44;;;;;;;12.77;7.22;;;;;;;;;;5034111;28;20037;-70
2023/03/27 05:15:14;;;;;;;16.58;7.38;;;;;;;;;;5025968;28;20476;-71
2023/03/27 05:17:44;;;;;;;20.88;8.20;;;;;;;;;;5028221;28;20038;-71
2023/03/27 05:20:14;;;;;;;16.65;7.45;;;;;;;;;;5029170;28;20121;-70
2023/03/27 05:22:40;;;;;;;19.13;8.38;;;;;;;;;;5033923;28;20033;-70
2023/03/27 05:25:36;;;;;;;30.25;10.90;;;;;;;;;;5037232;28;20129;-71
2023/03/27 05:28:07;;;;;;;21.33;9.30;;;;;;;;;;5030782;28;20028;-71
2023/03/27 05:30:34;;;;;;;22.50;9.02;;;;;;;;;;5029202;28;20041;-71
2023/03/27 05:33:16;;;;;;;27.58;11.88;;;;;;;;;;5033127;28;20458;-71
2023/03/27 05:35:45;;;;;;;28.55;9.05;;;;;;;;;;5037721;28;20060;-70
2023/03/27 05:38:12;;;;;;;17.27;7.93;;;;;;;;;;5028906;28;20021;-71
2023/03/27 05:40:44;;;;;;;17.95;8.65;;;;;;;;;;5025593;28;20091;-70
2023/03/27 05:43:14;;;;;;;17.27;7.13;;;;;;;;;;5009906;28;20033;-72
2023/03/27 05:45:40;;;;;;;16.50;8.20;;;;;;;;;;5009994;28;20044;-71
2023/03/27 05:48:07;;;;;;;23.30;6.93;;;;;;;;;;5009911;28;20026;-71
2023/03/27 05:50:38;;;;;;;17.13;7.68;;;;;;;;;;5029266;28;20436;-71
2023/03/27 05:53:12;;;;;;;17.95;7.25;;;;;;;;;;5028856;28;20460;-70
2023/03/27 05:55:50;;;;;;;16.40;6.82;;;;;;;;;;5029304;28;20523;-69
2023/03/27 05:58:16;;;;;;;16.40;6.40;;;;;;;;;;5029252;28;20033;-70
2023/03/27 06:00:43;;;;;;;14.63;7.25;;;;;;;;;;5028287;28;20032;-71
2023/03/27 06:03:18;;;;;;;13.40;7.10;;;;;;;;;;5013270;28;20175;-72
2023/03/27 06:06:08;;;;;;;12.40;6.80;;;;;;;;;;5028624;28;20411;-71
2023/03/27 06:08:35;;;;;;;17.10;7.72;;;;;;;;;;5029126;28;20121;-71
2023/03/27 06:11:09;;;;;;;13.10;7.18;;;;;;;;;;5028343;28;20471;-70
2023/03/27 06:13:41;;;;;;;13.02;6.80;;;;;;;;;;5029194;28;20113;-70
2023/03/27 06:16:10;;;;;;;13.50;7.85;;;;;;;;;;5028966;28;20037;-71
2023/03/27 06:18:41;;;;;;;10.88;6.50;;;;;;;;;;5029858;28;20090;-70
2023/03/27 06:21:09;;;;;;;10.98;6.13;;;;;;;;;;5028755;28;20088;-72
2023/03/27 06:23:35;;;;;;;11.07;6.03;;;;;;;;;;5029532;28;20442;-71
2023/03/27 06:26:08;;;;;;;16.20;8.98;;;;;;;;;;5029317;28;20037;-72
2023/03/27 06:28:35;;;;;;;12.10;6.00;;;;;;;;;;5029802;28;20041;-72
2023/03/27 06:31:02;;;;;;;13.25;6.07;;;;;;;;;;5028837;28;20083;-74
2023/03/27 06:33:51;;;;;;;11.15;6.50;;;;;;;;;;5027105;28;20049;-70
2023/03/27 06:36:33;;;;;;;8.27;6.07;;;;;;;;;;5029281;28;20120;-70
2023/03/27 06:39:05;;;;;;;15.05;7.28;;;;;;;;;;5028792;28;20574;-70
2023/03/27 06:41:32;;;;;;;11.60;5.93;;;;;;;;;;5013410;28;20076;-70
2023/03/27 06:44:03;;;;;;;9.77;6.15;;;;;;;;;;5030293;28;20029;-70
2023/03/27 06:47:05;;;;;;;10.15;6.00;;;;;;;;;;5033253;28;20439;-72
2023/03/27 06:49:46;;;;;;;13.50;6.20;;;;;;;;;;5032275;28;20060;-71
2023/03/27 06:52:17;;;;;;;9.98;5.97;;;;;;;;;;5032045;28;20084;-72
2023/03/27 06:54:45;;;;;;;8.52;6.05;;;;;;;;;;5015672;28;20029;-72
2023/03/27 06:57:11;;;;;;;12.45;6.35;;;;;;;;;;5028296;28;20080;-72
2023/03/27 06:59:56;;;;;;;9.98;6.28;;;;;;;;;;5012455;28;20373;-73
2023/03/27 07:02:35;;;;;;;12.52;6.00;;;;;;;;;;5012384;28;20116;-71
2023/03/27 07:05:27;;;;;;;11.48;6.22;;;;;;;;;;5007213;28;20069;-71
2023/03/27 07:07:54;;;;;;;11.18;5.85;;;;;;;;;;5013074;28;20030;-71
2023/03/27 07:10:25;;;;;;;7.57;5.30;;;;;;;;;;5011938;28;20441;-71
2023/03/27 07:12:53;;;;;;;11.23;5.75;;;;;;;;;;5011907;28;20033;-69
2023/03/27 07:15:20;;;;;;;10.57;5.43;;;;;;;;;;5012812;28;20457;-70
2023/03/27 07:17:56;;;;;;;9.68;4.68;;;;;;;;;;5011691;28;20121;-68
2023/03/27 07:20:24;;;;;;;8.07;4.60;;;;;;;;;;5011265;28;20087;-71
2023/03/27 07:22:50;;;;;;;6.25;4.05;;;;;;;;;;5011236;28;20108;-70
2023/03/27 07:25:31;;;;;;;7.13;3.90;;;;;;;;;;5011833;28;20411;-70
2023/03/27 07:27:58;;;;;;;5.95;4.22;;;;;;;;;;5011970;28;20030;-71
2023/03/27 07:30:24;;;;;;;11.00;4.50;;;;;;;;;;5011580;28;20033;-70
2023/03/27 07:32:50;;;;;;;6.53;4.60;;;;;;;;;;5012245;28;20029;-70
2023/03/27 07:35:17;;;;;;;7.68;3.92;;;;;;;;;;5011457;28;20062;-70
2023/03/27 07:38:13;;;;;;;7.68;4.07;;;;;;;;;;5012782;28;20046;-71
2023/03/27 07:40:39;;;;;;;8.00;4.07;;;;;;;;;;5013021;28;20034;-71
2023/03/27 07:43:25;;;;;;;8.25;4.53;;;;;;;;;;5011209;28;20113;-70
2023/03/27 07:45:51;;;;;;;9.77;4.65;;;;;;;;;;5011313;28;20057;-70
2023/03/27 07:48:17;;;;;;;6.53;4.13;;;;;;;;;;5011163;28;20480;-69
2023/03/27 07:50:45;;;;;;;9.90;4.20;;;;;;;;;;5012712;28;20492;-69
2023/03/27 07:53:14;;;;;;;5.32;3.30;;;;;;;;;;5011150;28;20030;-70
2023/03/27 07:55:45;;;;;;;4.80;3.08;;;;;;;;;;5011162;28;20407;-70
2023/03/27 07:58:11;;;;;;;6.00;4.10;;;;;;;;;;5011184;28;20127;-70
2023/03/27 08:00:38;;;;;;;8.77;3.90;;;;;;;;;;5010413;28;20037;-70
2023/03/27 08:03:13;;;;;;;6.03;3.20;;;;;;;;;;5010777;28;20041;-71
2023/03/27 08:05:44;;;;;;;8.93;3.10;;;;;;;;;;5010697;28;20500;-70
2023/03/27 08:08:14;;;;;;;7.00;3.28;;;;;;;;;;5010780;28;20462;-71
2023/03/27 08:10:49;;;;;;;9.40;3.60;;;;;;;;;;5010541;28;20037;-72
2023/03/27 08:13:17;;;;;;;5.45;2.55;;;;;;;;;;5010617;28;20044;-71
2023/03/27 08:15:42;;;;;;;5.28;2.70;;;;;;;;;;5012380;28;20368;-71
2023/03/27 08:18:19;;;;;;;4.00;2.70;;;;;;;;;;5010853;28;20116;-71
2023/03/27 08:20:46;;;;;;;5.72;3.00;;;;;;;;;;5010661;28;20125;-70
2023/03/27 08:23:12;;;;;;;4.00;2.50;;;;;;;;;;4995085;28;20498;-71
2023/03/27 08:26:11;;;;;;;6.88;2.83;;;;;;;;;;4999878;28;20102;-72
2023/03/27 08:28:48;;;;;;;7.03;3.13;;;;;;;;;;5011053;28;20453;-71
2023/03/27 08:31:15;;;;;;;4.85;2.38;;;;;;;;;;5012373;28;20048;-72
2023/03/27 08:33:42;;;;;;;5.03;2.38;;;;;;;;;;5010872;28;20018;-73
2023/03/27 08:36:14;;;;;;;3.65;2.20;;;;;;;;;;5010664;28;20036;-71
2023/03/27 08:38:41;;;;;;;6.03;2.78;;;;;;;;;;5010156;28;20121;-72
2023/03/27 08:41:40;;;;;;;3.55;2.03;;;;;;;;;;5014550;28;20033;-72
2023/03/27 08:44:18;;;;;;;3.72;2.20;;;;;;;;;;5038882;28;20519;-72
2023/03/27 08:46:57;;;;;;;4.50;2.00;;;;;;;;;;5019627;28;20039;-72
2023/03/27 08:49:38;;;;;;;8.02;2.67;;;;;;;;;;5028895;28;20045;-71
2023/03/27 08:52:32;;;;;;;6.22;3.80;;;;;;;;;;5029037;28;20037;-71
2023/03/27 08:55:09;;;;;;;4.32;2.13;;;;;;;;;;5031385;28;20033;-70
2023/03/27 08:57:42;;;;;;;8.35;2.45;;;;;;;;;;5025280;28;20091;-72
2023/03/27 09:00:21;;;;;;;2.97;2.08;;;;;;;;;;5026313;28;20385;-72
2023/03/27 09:03:21;;;;;;;4.10;1.90;;;;;;;;;;5021123;28;20492;-73
2023/03/27 09:06:06;;;;;;;7.95;2.80;;;;;;;;;;5025046;28;20025;-71
2023/03/27 09:08:41;;;;;;;7.30;2.47;;;;;;;;;;5037228;28;20029;-72
2023/03/27 09:11:18;;;;;;;4.38;2.50;;;;;;;;;;5026576;28;20436;-71
2023/03/27 09:13:52;;;;;;;7.65;2.30;;;;;;;;;;5030237;28;20040;-71
2023/03/27 09:16:29;;;;;;;4.25;2.28;;;;;;;;;;5030786;28;20037;-72
2023/03/27 09:19:17;;;;;;;3.80;2.45;;;;;;;;;;5029639;28;20034;-72
2023/03/27 09:21:45;;;;;;;5.10;1.95;;;;;;;;;;5030289;28;20065;-72
2023/03/27 09:24:45;;;;;;;3.20;1.60;;;;;;;;;;5029156;28;20029;-71
2023/03/27 09:27:36;;;;;;;3.38;1.70;;;;;;;;;;5031151;28;20155;-72
2023/03/27 09:30:32;;;;;;;4.68;1.98;;;;;;;;;;5029871;28;20037;-71
2023/03/27 09:33:10;;;;;;;5.57;1.90;;;;;;;;;;5023976;28;20053;-71
2023/03/27 09:35:37;;;;;;;4.95;1.75;;;;;;;;;;5042824;28;20433;-70
2023/03/27 09:38:30;;;;;;;6.85;2.22;;;;;;;;;;5034716;28;20110;-72
2023/03/27 09:41:07;;;;;;;5.00;2.05;;;;;;;;;;5021514;28;20033;-71
2023/03/27 09:43:55;;;;;;;4.20;1.98;;;;;;;;;;5022779;28;20034;-71
2023/03/27 09:46:24;;;;;;;5.65;2.08;;;;;;;;;;5011577;28;20041;-72
2023/03/27 09:49:01;;;;;;;3.47;1.90;;;;;;;;;;5034894;28;20029;-72
2023/03/27 09:51:36;;;;;;;6.00;2.23;;;;;;;;;;5030215;28;20041;-70
2023/03/27 09:54:03;;;;;;;4.47;1.90;;;;;;;;;;5028849;28;20376;-71
2023/03/27 09:56:41;;;;;;;3.83;1.60;;;;;;;;;;5036296;28;20411;-71
2023/03/27 09:59:36;;;;;;;4.70;2.03;;;;;;;;;;5028876;28;20033;-70
2023/03/27 10:02:20;;;;;;;3.45;2.00;;;;;;;;;;5034141;28;20030;-71
2023/03/27 10:05:10;;;;;;;5.07;2.10;;;;;;;;;;5030368;28;20033;-71
2023/03/27 10:07:39;;;;;;;4.57;2.30;;;;;;;;;;5028996;28;20041;-70
2023/03/27 10:10:16;;;;;;;5.38;2.20;;;;;;;;;;5038575;28;20108;-71
2023/03/27 10:13:08;;;;;;;4.07;2.42;;;;;;;;;;5032784;28;20443;-71
2023/03/27 10:15:40;;;;;;;6.32;2.13;;;;;;;;;;5020540;28;20051;-70
2023/03/27 10:18:23;;;;;;;7.03;2.55;;;;;;;;;;5029147;28;20112;-71
2023/03/27 10:20:52;;;;;;;8.05;2.20;;;;;;;;;;5031620;28;20045;-70
2023/03/27 10:23:42;;;;;;;8.18;2.88;;;;;;;;;;5033208;28;20061;-69
2023/03/27 10:26:26;;;;;;;5.80;2.30;;;;;;;;;;5031841;28;20048;-70
2023/03/27 10:28:57;;;;;;;3.15;1.83;;;;;;;;;;5033337;28;20041;-70
2023/03/27 10:31:36;;;;;;;4.88;2.00;;;;;;;;;;5041329;28;20053;-71
2023/03/27 10:34:26;;;;;;;5.72;2.35;;;;;;;;;;5013108;28;20041;-72
2023/03/27 10:37:32;;;;;;;6.77;2.47;;;;;;;;;;5039803;28;20407;-71
2023/03/27 10:40:36;;;;;;;3.33;1.90;;;;;;;;;;5043860;28;20510;-72
2023/03/27 10:43:17;;;;;;;6.13;1.80;;;;;;;;;;5040461;28;20133;-71
2023/03/27 10:45:48;;;;;;;5.78;2.28;;;;;;;;;;5038149;28;20051;-71
2023/03/27 10:48:30;;;;;;;4.15;1.80;;;;;;;;;;5044325;28;20115;-70
2023/03/27 10:51:01;;;;;;;8.00;2.88;;;;;;;;;;5036330;28;20025;-71
2023/03/27 10:53:54;;;;;;;3.85;2.15;;;;;;;;;;5054390;28;20483;-73
2023/03/27 10:56:37;;;;;;;3.10;1.90;;;;;;;;;;5052658;28;20113;-71
2023/03/27 10:59:15;;;;;;;6.00;1.95;;;;;;;;;;5052382;28;20045;-70
2023/03/27 11:01:51;;;;;;;5.18;2.53;;;;;;;;;;5052477;28;20052;-71
2023/03/27 11:04:56;;;;;;;3.65;1.90;;;;;;;;;;5052835;28;20039;-71
2023/03/27 11:07:32;;;;;;;4.93;1.65;;;;;;;;;;5054032;28;20052;-69
2023/03/27 11:10:10;;;;;;;3.97;1.67;;;;;;;;;;5052187;28;20517;-71
2023/03/27 11:12:39;;;;;;;2.80;1.73;;;;;;;;;;5052325;28;20025;-69
2023/03/27 11:15:14;;;;;;;5.30;1.85;;;;;;;;;;5052161;28;20069;-70
2023/03/27 11:17:48;;;;;;;4.13;1.75;;;;;;;;;;5052430;28;20086;-70
2023/03/27 11:20:25;;;;;;;6.63;1.90;;;;;;;;;;5036005;28;20028;-69
2023/03/27 11:23:10;;;;;;;8.32;1.98;;;;;;;;;;5053731;28;20041;-68
2023/03/27 11:26:02;;;;;;;7.22;2.08;;;;;;;;;;5053530;28;20036;-69
2023/03/27 11:28:42;;;;;;;9.77;2.40;;;;;;;;;;5052058;28;20517;-69
2023/03/27 11:31:33;;;;;;;12.05;2.30;;;;;;;;;;5051414;28;20044;-68
2023/03/27 11:34:05;;;;;;;7.72;1.90;;;;;;;;;;5052329;28;20060;-71
2023/03/27 11:36:38;;;;;;;8.77;2.13;;;;;;;;;;5036626;28;20044;-71
2023/03/27 11:39:29;;;;;;;10.23;2.85;;;;;;;;;;5030675;28;20038;-71
2023/03/27 11:42:04;;;;;;;10.23;2.78;;;;;;;;;;5035428;28;20060;-71
2023/03/27 11:44:30;;;;;;;11.95;2.58;;;;;;;;;;5035674;28;20068;-70
2023/03/27 11:47:20;;;;;;;7.53;2.97;;;;;;;;;;5043973;28;20086;-71
2023/03/27 11:50:17;;;;;;;6.45;2.78;;;;;;;;;;5039770;28;20116;-71
2023/03/27 11:53:36;;;;;;;5.72;2.15;;;;;;;;;;5063662;28;20072;-70
2023/03/27 11:56:14;;;;;;;16.98;2.80;;;;;;;;;;5030218;28;20124;-69
2023/03/27 11:59:04;;;;;;;17.90;3.17;;;;;;;;;;5031548;28;20140;-70
2023/03/27 12:01:48;;;;;;;11.52;3.40;;;;;;;;;;5031910;28;20044;-70
2023/03/27 12:04:38;;;;;;;9.98;3.65;;;;;;;;;;5032602;28;20353;-70
2023/03/27 12:08:25;;;;;;;18.88;3.35;;;;;;;;;;5022387;28;20407;-70
2023/03/27 12:10:55;;;;;;;32.60;4.18;;;;;;;;;;5044933;28;20549;-71
2023/03/27 12:13:47;;;;;;;9.75;3.03;;;;;;;;;;5038418;28;20045;-70
2023/03/27 12:17:12;;;;;;;13.75;3.10;;;;;;;;;;5032459;28;20430;-69
2023/03/27 12:20:15;;;;;;;8.50;2.70;;;;;;;;;;5031296;28;20030;-70
2023/03/27 12:23:23;;;;;;;11.30;2.63;;;;;;;;;;5030910;28;20124;-68
2023/03/27 12:27:04;;;;;;;12.30;2.83;;;;;;;;;;5028907;28;20504;-70
2023/03/27 12:30:19;;;;;;;12.70;3.67;;;;;;;;;;5030574;28;20041;-71
2023/03/27 12:32:58;;;;;;;5.55;2.47;;;;;;;;;;5028137;28;20406;-69
2023/03/27 12:35:31;;;;;;;12.25;2.35;;;;;;;;;;5030395;28;20173;-70
2023/03/27 12:38:13;;;;;;;17.63;2.60;;;;;;;;;;5031360;28;20029;-70
2023/03/27 12:40:46;;;;;;;15.60;3.58;;;;;;;;;;5028544;28;20396;-70
2023/03/27 12:43:46;;;;;;;13.65;2.95;;;;;;;;;;5032731;28;20052;-68
2023/03/27 12:46:25;;;;;;;10.70;2.50;;;;;;;;;;5052263;28;20045;-69
2023/03/27 12:49:06;;;;;;;17.35;3.17;;;;;;;;;;5031213;28;20033;-68
2023/03/27 12:52:03;;;;;;;9.52;2.65;;;;;;;;;;5031794;28;20491;-68
2023/03/27 12:55:25;;;;;;;12.60;2.50;;;;;;;;;;5035984;28;20402;-70
2023/03/27 12:57:54;;;;;;;12.35;2.47;;;;;;;;;;5033813;28;20493;-69
2023/03/27 13:00:40;;;;;;;7.97;2.90;;;;;;;;;;5035680;28;20029;-69
2023/03/27 13:03:35;;;;;;;6.18;2.10;;;;;;;;;;5031715;28;20029;-68
2023/03/27 13:06:23;;;;;;;7.72;2.63;;;;;;;;;;5027633;28;20041;-68
2023/03/27 13:08:59;;;;;;;9.18;2.50;;;;;;;;;;5032606;28;20033;-67
2023/03/27 13:12:06;;;;;;;13.68;2.90;;;;;;;;;;5036906;28;20033;-69
2023/03/27 13:15:02;;;;;;;5.85;2.15;;;;;;;;;;5031374;28;20044;-68
2023/03/27 13:17:47;;;;;;;6.93;2.08;;;;;;;;;;5029922;28;20095;-69
2023/03/27 13:20:44;;;;;;;18.02;12.13;;;;;;;;;;5049415;28;20048;-67
2023/03/27 13:23:49;;;;;;;11.10;2.88;;;;;;;;;;5031955;28;20155;-68
2023/03/27 13:26:49;;;;;;;7.30;2.50;;;;;;;;;;5039887;28;20064;-68
2023/03/27 13:29:21;;;;;;;5.40;1.80;;;;;;;;;;5019702;28;20227;-69
2023/03/27 13:32:23;;;;;;;6.03;1.90;;;;;;;;;;5045538;28;20124;-68
2023/03/27 13:35:31;;;;;;;9.68;2.40;;;;;;;;;;5015260;28;20048;-68
2023/03/27 13:37:57;;;;;;;5.70;2.10;;;;;;;;;;5038413;28;20033;-69
2023/03/27 13:40:35;;;;;;;10.20;2.80;;;;;;;;;;5031555;28;20090;-69
2023/03/27 13:43:10;;;;;;;9.25;2.13;;;;;;;;;;5030442;28;20279;-69
2023/03/27 13:45:47;;;;;;;3.70;2.47;;;;;;;;;;5030362;28;20029;-69
2023/03/27 13:49:03;;;;;;;3.63;1.70;;;;;;;;;;5031635;28;20041;-68
2023/03/27 13:51:41;;;;;;;6.28;1.90;;;;;;;;;;5030513;28;20492;-70
2023/03/27 13:54:33;;;;;;;7.07;2.22;;;;;;;;;;5032030;28;20407;-69
2023/03/27 13:57:23;;;;;;;6.00;2.03;;;;;;;;;;5042177;28;20029;-69
2023/03/27 14:00:28;;;;;;;7.57;1.70;;;;;;;;;;5031253;28;20064;-68
2023/03/27 14:03:39;;;;;;;6.75;1.60;;;;;;;;;;5026054;28;20412;-71
2023/03/27 14:06:35;;;;;;;6.55;1.45;;;;;;;;;;5034126;28;20073;-70
2023/03/27 14:09:28;;;;;;;8.88;1.40;;;;;;;;;;5033889;28;20034;-69
2023/03/27 14:12:23;;;;;;;5.40;1.52;;;;;;;;;;5034401;28;20033;-69
2023/03/27 14:15:19;;;;;;;4.93;1.50;;;;;;;;;;5034070;28;20191;-69
2023/03/27 14:18:05;;;;;;;5.07;1.20;;;;;;;;;;5033546;28;20056;-68
2023/03/27 14:20:46;;;;;;;5.15;1.63;;;;;;;;;;5033525;28;20527;-69
2023/03/27 14:23:20;;;;;;;4.43;1.50;;;;;;;;;;5034413;28;20033;-69
2023/03/27 14:26:19;;;;;;;4.45;1.20;;;;;;;;;;5030941;28;20053;-69
2023/03/27 14:28:50;;;;;;;1.90;1.10;;;;;;;;;;5031728;28;20062;-68
2023/03/27 14:31:25;;;;;;;2.70;1.10;;;;;;;;;;5037572;28;20496;-69
2023/03/27 14:34:11;;;;;;;3.67;1.42;;;;;;;;;;5045035;28;20032;-69
2023/03/27 14:36:47;;;;;;;4.25;1.23;;;;;;;;;;5053280;28;20033;-69
2023/03/27 14:39:25;;;;;;;1.92;1.23;;;;;;;;;;5053092;28;20052;-69
2023/03/27 14:42:01;;;;;;;5.45;1.20;;;;;;;;;;5053094;28;20028;-69
2023/03/27 14:44:32;;;;;;;2.72;1.05;;;;;;;;;;5036670;28;20041;-69
2023/03/27 14:47:03;;;;;;;;;;;;;;;;;;5053743;28;20033;-68
2023/03/27 14:49:36;;;;;;;3.38;1.23;;;;;;;;;;5052562;28;20024;-69
2023/03/27 14:52:06;;;;;;;5.95;1.92;;;;;;;;;;5036506;28;20021;-70
2023/03/27 14:55:16;;;;;;;4.07;1.60;;;;;;;;;;5032768;28;20131;-69
2023/03/27 14:57:44;;;;;;;6.75;1.65;;;;;;;;;;5029689;28;20235;-70
2023/03/27 15:00:18;;;;;;;2.63;1.10;;;;;;;;;;5017345;28;20025;-70
2023/03/27 15:02:48;;;;;;;6.22;2.00;;;;;;;;;;5053232;28;20042;-68
2023/03/27 15:05:16;;;;;;;5.65;1.90;;;;;;;;;;5025356;28;20038;-69
2023/03/27 15:07:47;;;;;;;5.57;1.63;;;;;;;;;;5026764;28;20486;-69
2023/03/27 15:10:36;;;;;;;5.15;1.65;;;;;;;;;;5023111;28;20518;-70
2023/03/27 15:13:10;;;;;;;3.88;1.27;;;;;;;;;;5031693;28;20065;-70
2023/03/27 15:15:45;;;;;;;7.50;2.25;;;;;;;;;;5015395;28;20502;-68
2023/03/27 15:18:14;;;;;;;5.68;1.60;;;;;;;;;;5034195;28;20352;-69
2023/03/27 15:20:40;;;;;;;5.75;1.60;;;;;;;;;;5029840;28;20038;-69
2023/03/27 15:23:28;;;;;;;7.93;2.03;;;;;;;;;;5027974;28;20109;-68
2023/03/27 15:26:00;;;;;;;3.75;1.70;;;;;;;;;;5032647;28;20116;-68
2023/03/27 15:28:36;;;;;;;5.43;1.80;;;;;;;;;;5030520;28;20121;-68
2023/03/27 15:31:07;;;;;;;6.03;1.90;;;;;;;;;;5030888;28;20056;-68
2023/03/27 15:33:53;;;;;;;7.90;2.10;;;;;;;;;;5032686;28;20495;-69
2023/03/27 15:36:26;;;;;;;5.28;1.80;;;;;;;;;;5032001;28;20037;-70
2023/03/27 15:38:54;;;;;;;9.80;1.88;;;;;;;;;;5033099;28;20037;-70
2023/03/27 15:41:26;;;;;;;6.22;1.63;;;;;;;;;;5032041;28;20032;-69